Time;durP1;ratioP1;P1;durP2;ratioP2;P2;SDS_P1;SDS_P2;PMS_P1;PMS_P2;Temp;Humidity;BMP_temperature;BMP_pressure;BME280_temperature;BME280_humidity;BME280_pressure;Samples;Min_cycle;Max_cycle;Signal;HPM_P1;HPM_P2
2022/05/16 00:02:19;;;;;;;8.30;4.60;;;;;;;22.37;69.17;99260.94;5138284;27;20170;-88
2022/05/16 00:04:48;;;;;;;7.40;5.10;;;;;;;22.14;69.53;99259.69;5157005;27;20171;-88
2022/05/16 00:07:14;;;;;;;10.00;5.63;;;;;;;22.04;69.81;99254.38;5156309;27;20197;-88
2022/05/16 00:09:39;;;;;;;9.67;6.60;;;;;;;22.04;69.47;99257.06;5138115;27;20189;-89
2022/05/16 00:12:06;;;;;;;6.90;4.40;;;;;;;22.14;68.53;99258.84;5156568;27;20184;-88
2022/05/16 00:14:32;;;;;;;8.30;5.07;;;;;;;22.13;68.21;99251.81;5137970;27;20167;-89
2022/05/16 00:16:57;;;;;;;7.57;4.43;;;;;;;21.98;68.12;99252.34;5156158;27;20162;-89
2022/05/16 00:19:23;;;;;;;7.47;4.50;;;;;;;21.90;68.63;99262.06;5156113;27;20166;-89
2022/05/16 00:21:48;;;;;;;8.53;4.83;;;;;;;21.86;68.43;99264.19;5137790;27;20175;-88
2022/05/16 00:24:14;;;;;;;8.03;4.90;;;;;;;21.75;68.67;99258.19;5156018;27;20171;-88
2022/05/16 00:26:39;;;;;;;10.70;5.47;;;;;;;21.59;69.21;99258.84;5155885;27;20664;-88
2022/05/16 00:29:05;;;;;;;9.07;4.50;;;;;;;21.59;68.68;99257.97;5155957;27;20196;-88
2022/05/16 00:31:31;;;;;;;6.57;4.37;;;;;;;21.56;68.94;99260.94;5155823;27;20531;-88
2022/05/16 00:33:57;;;;;;;9.40;5.10;;;;;;;21.46;69.37;99271.66;5155772;27;20178;-89
2022/05/16 00:36:22;;;;;;;9.40;5.43;;;;;;;21.37;70.07;99275.19;5155794;27;20523;-89
2022/05/16 00:38:50;;;;;;;9.70;5.03;;;;;;;21.44;69.78;99271.78;5155739;27;20234;-88
2022/05/16 00:41:16;;;;;;;8.07;5.03;;;;;;;21.47;69.09;99269.81;5137512;27;20166;-88
2022/05/16 00:43:41;;;;;;;8.63;5.40;;;;;;;21.39;68.79;99278.53;5155361;27;20269;-89
2022/05/16 00:46:07;;;;;;;9.07;4.63;;;;;;;21.31;69.05;99268.59;5138415;27;20285;-88
2022/05/16 00:48:32;;;;;;;7.57;4.40;;;;;;;21.19;69.31;99272.44;5155534;27;20651;-89
2022/05/16 00:50:59;;;;;;;8.37;4.80;;;;;;;21.17;69.40;99276.22;5137284;27;20219;-89
2022/05/16 00:53:25;;;;;;;9.13;5.20;;;;;;;21.16;69.49;99275.38;5137202;27;20185;-88
2022/05/16 00:55:50;;;;;;;6.93;4.33;;;;;;;21.16;69.04;99270.06;5137216;27;20166;-89
2022/05/16 00:58:19;;;;;;;10.57;4.40;;;;;;;21.21;68.39;99278.47;5155364;27;20158;-90
2022/05/16 01:00:48;;;;;;;10.70;5.07;;;;;;;21.15;68.39;99267.50;5137146;27;20171;-89
2022/05/16 01:06:03;;;;;;;8.70;4.67;;;;;;;20.92;68.69;99266.97;5155768;27;20214;-89
2022/05/16 01:08:31;;;;;;;7.83;4.33;;;;;;;21.04;68.11;99271.16;5155213;27;20171;-89
2022/05/16 01:11:02;;;;;;;9.83;5.63;;;;;;;21.04;67.78;99268.47;5155196;27;20223;-88
2022/05/16 01:13:30;;;;;;;8.27;5.07;;;;;;;21.06;67.30;99274.56;5155448;27;20502;-89
2022/05/16 01:15:57;;;;;;;12.03;5.10;;;;;;;20.89;67.70;99274.41;5136858;27;20167;-89
2022/05/16 01:18:24;;;;;;;8.47;5.13;;;;;;;20.83;67.52;99275.84;5155049;27;20166;-88
2022/05/16 01:21:15;;;;;;;7.40;4.40;;;;;;;20.70;67.88;99272.63;5155061;27;20193;-89
2022/05/16 01:23:45;;;;;;;6.53;4.17;;;;;;;20.52;68.85;99282.28;5155549;27;20170;-88
2022/05/16 01:26:15;;;;;;;8.40;4.33;;;;;;;20.46;68.69;99283.69;5154925;27;20663;-89
2022/05/16 01:28:40;;;;;;;9.77;4.47;;;;;;;20.42;68.44;99276.09;5154971;27;20177;-88
2022/05/16 01:31:06;;;;;;;7.33;4.00;;;;;;;20.46;68.44;99278.38;5136730;27;20174;-89
2022/05/16 01:33:31;;;;;;;7.23;4.60;;;;;;;20.44;68.54;99272.31;5155164;27;20166;-89
2022/05/16 01:35:57;;;;;;;7.33;4.30;;;;;;;20.33;68.60;99272.47;5154883;27;20170;-88
2022/05/16 01:38:26;;;;;;;6.00;4.00;;;;;;;20.38;68.35;99275.56;5155132;27;20174;-89
2022/05/16 01:40:53;;;;;;;9.50;5.20;;;;;;;20.53;68.00;99279.47;5136616;27;20238;-89
2022/05/16 01:43:21;;;;;;;9.73;3.97;;;;;;;20.51;67.57;99275.28;5154633;27;20250;-88
2022/05/16 01:45:48;;;;;;;6.47;4.67;;;;;;;20.47;67.68;99276.53;5155098;27;20154;-88
2022/05/16 01:48:15;;;;;;;9.27;5.10;;;;;;;20.22;68.58;99276.06;5154672;27;20229;-88
2022/05/16 01:50:42;;;;;;;7.93;4.43;;;;;;;20.23;68.69;99275.09;5136580;27;20178;-89
2022/05/16 01:53:08;;;;;;;7.23;4.10;;;;;;;20.31;68.47;99278.91;5154734;27;20580;-89
2022/05/16 01:55:34;;;;;;;8.10;4.83;;;;;;;20.28;68.20;99284.50;5157443;27;20170;-89
2022/05/16 01:57:59;;;;;;;12.20;5.50;;;;;;;20.16;68.62;99286.41;5158950;27;20193;-89
2022/05/16 02:00:25;;;;;;;6.83;4.30;;;;;;;20.06;68.74;99291.72;5140664;27;20193;-89
2022/05/16 02:02:51;;;;;;;9.27;5.00;;;;;;;19.97;68.55;99286.34;5140624;27;20174;-89
2022/05/16 02:05:19;;;;;;;7.60;4.40;;;;;;;19.96;68.56;99290.84;5158813;27;20592;-89
2022/05/16 02:07:45;;;;;;;8.70;4.37;;;;;;;19.93;68.89;99296.44;5158940;27;20628;-89
2022/05/16 02:10:15;;;;;;;11.10;4.90;;;;;;;19.79;69.47;99293.28;5158730;27;20180;-89
2022/05/16 02:12:41;;;;;;;11.57;5.53;;;;;;;19.70;70.04;99294.97;5159272;27;20185;-89
2022/05/16 02:15:09;;;;;;;11.63;5.50;;;;;;;19.72;69.91;99303.66;5140411;27;20209;-89
2022/05/16 02:17:35;;;;;;;8.37;5.00;;;;;;;19.66;70.28;99293.53;5158576;27;20174;-89
2022/05/16 02:20:01;;;;;;;9.43;5.33;;;;;;;19.75;70.04;99307.84;5159070;27;20166;-89
2022/05/16 02:25:11;;;;;;;7.43;4.10;;;;;;;19.50;71.13;99293.19;5158486;27;20223;-89
2022/05/16 02:27:36;;;;;;;8.53;5.03;;;;;;;19.51;71.28;99306.34;5140020;27;20193;-90
2022/05/16 02:30:04;;;;;;;11.83;4.70;;;;;;;19.57;70.83;99305.00;5158675;27;20245;-89
2022/05/16 02:32:30;;;;;;;9.27;4.63;;;;;;;19.59;70.47;99297.72;5158211;27;20166;-89
2022/05/16 02:34:55;;;;;;;7.83;4.37;;;;;;;19.70;69.64;99292.31;5140012;27;20178;-89
2022/05/16 02:37:21;;;;;;;7.73;4.53;;;;;;;19.78;69.84;99296.94;5158743;27;20164;-89
2022/05/16 02:39:47;;;;;;;8.90;5.03;;;;;;;19.66;69.79;99298.84;5158383;27;20170;-89
2022/05/16 02:42:14;;;;;;;7.47;4.90;;;;;;;19.46;70.91;99300.59;5158108;27;20166;-89
2022/05/16 02:44:43;;;;;;;8.67;4.80;;;;;;;19.47;71.09;99296.13;5157908;27;20621;-89
2022/05/16 02:47:13;;;;;;;9.37;4.70;;;;;;;19.46;70.50;99300.59;5157913;27;20194;-89
2022/05/16 02:49:39;;;;;;;8.23;4.73;;;;;;;19.46;70.10;99302.41;5157903;27;20170;-89
2022/05/16 02:52:05;;;;;;;10.03;4.63;;;;;;;19.39;69.91;99302.06;5157904;27;20261;-89
2022/05/16 02:54:31;;;;;;;7.07;4.53;;;;;;;19.38;70.38;99294.25;5157841;27;20714;-89
2022/05/16 02:56:58;;;;;;;7.93;4.63;;;;;;;19.37;69.96;99292.53;5158092;27;20170;-88
2022/05/16 02:59:26;;;;;;;8.97;4.57;;;;;;;19.39;69.49;99302.06;5157726;27;20249;-88
2022/05/16 03:01:51;;;;;;;8.10;4.63;;;;;;;19.42;69.23;99298.31;5157969;27;20167;-89
2022/05/16 03:04:17;;;;;;;7.23;4.33;;;;;;;19.40;69.55;99292.28;5157651;27;20177;-88
2022/05/16 03:06:42;;;;;;;9.13;5.57;;;;;;;19.30;69.59;99308.16;5157310;27;20240;-88
2022/05/16 03:09:09;;;;;;;6.63;4.30;;;;;;;19.23;70.36;99300.84;5157531;27;20523;-89
2022/05/16 03:11:34;;;;;;;9.17;4.70;;;;;;;19.34;69.21;99303.44;5157540;27;20215;-89
2022/05/16 03:14:00;;;;;;;8.60;4.93;;;;;;;19.22;69.28;99310.63;5157472;27;20209;-88
2022/05/16 03:16:25;;;;;;;7.03;4.33;;;;;;;19.11;69.97;99312.50;5157384;27;20162;-88
2022/05/16 03:18:51;;;;;;;5.97;3.73;;;;;;;19.02;70.71;99307.00;5157356;27;20253;-88
2022/05/16 03:21:17;;;;;;;8.37;4.13;;;;;;;19.01;70.40;99313.28;5157341;27;20295;-89
2022/05/16 03:23:43;;;;;;;7.07;4.10;;;;;;;19.00;70.09;99316.91;5138999;27;20261;-88
2022/05/16 03:26:09;;;;;;;8.03;4.10;;;;;;;19.00;70.51;99316.91;5157452;27;20613;-89
2022/05/16 03:28:35;;;;;;;8.03;4.37;;;;;;;18.96;70.91;99315.50;5157435;27;20596;-88
2022/05/16 03:31:01;;;;;;;9.90;4.73;;;;;;;18.97;70.61;99319.81;5157133;27;20207;-87
2022/05/16 03:33:27;;;;;;;7.20;4.57;;;;;;;19.02;70.63;99314.97;5138838;27;20547;-88
2022/05/16 03:35:55;;;;;;;7.67;5.07;;;;;;;18.99;70.67;99320.56;5157054;27;20166;-88
2022/05/16 03:41:12;;;;;;;13.40;5.90;;;;;;;18.83;71.02;99322.81;5157528;27;20165;-88
2022/05/16 03:43:39;;;;;;;7.87;4.37;;;;;;;18.86;71.00;99333.19;5156979;27;20185;-88
2022/05/16 03:46:06;;;;;;;13.30;5.73;;;;;;;18.92;71.19;99327.34;5139465;27;20575;-88
2022/05/16 03:48:32;;;;;;;6.97;4.03;;;;;;;18.98;70.94;99329.50;5138555;27;20170;-88
2022/05/16 03:50:59;;;;;;;8.30;4.67;;;;;;;19.06;70.86;99325.34;5156992;27;20534;-88
2022/05/16 03:53:24;;;;;;;8.67;4.97;;;;;;;19.01;71.40;99331.03;5138468;27;20239;-88
2022/05/16 03:55:50;;;;;;;8.33;5.30;;;;;;;18.97;71.56;99333.09;5156961;27;20528;-88
2022/05/16 03:58:15;;;;;;;7.07;3.80;;;;;;;18.93;72.36;99347.63;5156648;27;20177;-88
2022/05/16 04:00:41;;;;;;;8.63;4.77;;;;;;;18.88;72.47;99343.66;5138328;27;20170;-88
2022/05/16 04:03:07;;;;;;;7.83;4.27;;;;;;;18.88;72.26;99344.53;5156768;27;20178;-88
2022/05/16 04:05:32;;;;;;;7.60;3.97;;;;;;;18.95;72.28;99350.16;5138238;27;20175;-88
2022/05/16 04:07:58;;;;;;;8.50;5.07;;;;;;;18.99;71.87;99349.78;5156877;27;20262;-88
2022/05/16 04:10:24;;;;;;;6.17;3.73;;;;;;;19.05;71.57;99343.09;5156670;27;20192;-88
2022/05/16 04:12:50;;;;;;;7.50;5.00;;;;;;;19.05;71.48;99352.91;5156615;27;20539;-88
2022/05/16 04:15:17;;;;;;;7.10;4.60;;;;;;;19.14;71.48;99347.63;5138343;27;20226;-88
2022/05/16 04:17:43;;;;;;;6.00;3.80;;;;;;;19.15;71.30;99354.66;5155555;27;20197;-88
2022/05/16 04:20:11;;;;;;;6.87;4.07;;;;;;;19.15;71.31;99359.13;5156189;27;20234;-89
2022/05/16 04:22:38;;;;;;;7.50;4.00;;;;;;;19.19;71.25;99358.72;5156148;27;20180;-87
2022/05/16 04:25:05;;;;;;;6.90;4.33;;;;;;;19.30;71.41;99357.81;5156082;27;20676;-88
2022/05/16 04:27:30;;;;;;;8.30;4.80;;;;;;;19.40;71.41;99358.75;5156235;27;20201;-88
2022/05/16 04:29:56;;;;;;;8.43;4.73;;;;;;;19.54;71.11;99361.09;5155997;27;20170;-88
2022/05/16 04:32:21;;;;;;;9.17;4.80;;;;;;;19.57;70.91;99363.50;5155977;27;20652;-88
2022/05/16 04:34:47;;;;;;;7.90;3.93;;;;;;;19.48;71.23;99359.78;5156212;27;20584;-88
2022/05/16 04:37:12;;;;;;;6.70;4.10;;;;;;;19.42;71.62;99364.78;5137623;27;20527;-88
2022/05/16 04:39:38;;;;;;;6.53;4.07;;;;;;;19.48;71.88;99369.56;5155822;27;20538;-88
2022/05/16 04:44:47;;;;;;;7.07;3.77;;;;;;;19.55;71.44;99374.25;5155974;27;20701;-88
2022/05/16 04:47:13;;;;;;;8.43;4.37;;;;;;;19.65;71.55;99366.34;5155616;27;20190;-88
2022/05/16 04:49:39;;;;;;;11.60;4.13;;;;;;;19.75;71.75;99367.22;5155649;27;20175;-87
2022/05/16 04:52:06;;;;;;;6.97;3.80;;;;;;;19.85;71.88;99367.25;5155595;27;20170;-88
2022/05/16 04:54:32;;;;;;;5.80;4.03;;;;;;;19.92;71.95;99366.59;5156130;27;20247;-88
2022/05/16 04:56:58;;;;;;;8.53;3.70;;;;;;;20.13;71.54;99367.38;5155728;27;20167;-88
2022/05/16 04:59:24;;;;;;;7.10;4.33;;;;;;;20.36;71.63;99370.69;5155439;27;20249;-88
2022/05/16 05:01:49;;;;;;;7.93;4.30;;;;;;;20.69;71.11;99369.50;5155395;27;20643;-88
2022/05/16 05:04:15;;;;;;;7.87;4.17;;;;;;;20.95;70.19;99373.28;5155379;27;20162;-88
2022/05/16 05:06:41;;;;;;;8.03;3.97;;;;;;;21.16;69.70;99379.34;5155271;27;20198;-88
2022/05/16 05:09:08;;;;;;;7.33;4.30;;;;;;;21.33;69.33;99373.28;5137031;27;20186;-88
2022/05/16 05:14:33;;;;;;;6.00;3.40;;;;;;;22.22;66.14;99377.25;5155790;27;20176;-87
2022/05/16 05:16:59;;;;;;;7.63;4.23;;;;;;;22.63;64.55;99379.44;5136980;27;20158;-88
2022/05/16 05:19:25;;;;;;;7.00;3.50;;;;;;;23.01;63.34;99374.78;5155694;27;20166;-88
2022/05/16 05:21:50;;;;;;;7.10;3.70;;;;;;;23.41;61.77;99369.81;5136894;27;20613;-88
2022/05/16 05:24:16;;;;;;;5.50;3.47;;;;;;;23.63;61.14;99373.81;5155073;27;20173;-88
2022/05/16 05:26:47;;;;;;;3.80;2.63;;;;;;;24.20;59.30;99369.63;5155222;27;20194;-88
2022/05/16 05:29:13;;;;;;;4.77;2.80;;;;;;;24.40;59.48;99379.91;5155029;27;20150;-88
2022/05/16 05:31:41;;;;;;;8.30;2.60;;;;;;;24.58;56.12;99382.47;5155038;27;20249;-89
2022/05/16 05:34:08;;;;;;;4.93;2.70;;;;;;;24.60;55.24;99380.50;5154989;27;20166;-88
2022/05/16 05:36:34;;;;;;;5.23;2.67;;;;;;;24.62;55.45;99388.38;5155265;27;20155;-88
2022/05/16 05:39:01;;;;;;;6.40;3.67;;;;;;;24.76;55.14;99380.53;5154879;27;20632;-88
2022/05/16 05:41:27;;;;;;;4.47;3.07;;;;;;;24.89;54.26;99391.66;5154912;27;20198;-89
2022/05/16 05:43:52;;;;;;;7.33;3.47;;;;;;;25.04;54.36;99387.31;5154897;27;20257;-88
2022/05/16 05:46:18;;;;;;;6.83;3.77;;;;;;;24.91;55.20;99389.66;5155085;27;20197;-90
2022/05/16 05:48:44;;;;;;;10.03;6.33;;;;;;;24.79;57.19;99396.31;5136625;27;20575;-88
2022/05/16 05:51:10;;;;;;;11.83;5.90;;;;;;;24.64;56.65;99397.91;5154837;27;20637;-90
2022/05/16 05:53:39;;;;;;;12.13;6.87;;;;;;;24.54;58.10;99397.22;5136639;27;20185;-90
2022/05/16 05:56:05;;;;;;;13.33;8.17;;;;;;;24.32;60.01;99381.72;5154794;27;20640;-89
2022/05/16 05:58:32;;;;;;;16.23;8.67;;;;;;;24.27;61.32;99392.09;5154686;27;20693;-88
2022/05/16 06:00:59;;;;;;;20.87;8.57;;;;;;;24.15;62.39;99391.56;5154681;27;20261;-88
2022/05/16 06:03:24;;;;;;;15.00;8.77;;;;;;;23.99;64.19;99385.22;5154942;27;20269;-89
2022/05/16 06:05:50;;;;;;;13.97;8.50;;;;;;;23.91;65.35;99382.50;5154950;27;20174;-88
2022/05/16 06:08:15;;;;;;;13.43;8.10;;;;;;;23.78;66.42;99386.47;5154574;27;20186;-88
2022/05/16 06:10:41;;;;;;;12.67;7.83;;;;;;;24.16;65.47;99379.00;5154622;27;20684;-89
2022/05/16 06:13:06;;;;;;;10.37;7.13;;;;;;;24.50;63.52;99385.16;5155148;27;20170;-89
2022/05/16 06:15:32;;;;;;;11.83;6.70;;;;;;;24.75;62.94;99378.00;5154851;27;20163;-89
2022/05/16 06:17:57;;;;;;;14.33;7.43;;;;;;;24.93;62.82;99382.25;5154559;27;20307;-90
2022/05/16 06:20:23;;;;;;;11.20;7.27;;;;;;;24.70;62.72;99388.38;5154766;27;20180;-90
2022/05/16 06:22:48;;;;;;;9.90;6.80;;;;;;;24.79;63.37;99384.78;5154763;27;20181;-89
2022/05/16 06:25:33;;;;;;;15.67;7.33;;;;;;;25.15;62.34;99382.63;5154767;27;20170;-89
2022/05/16 06:28:00;;;;;;;10.07;6.60;;;;;;;25.53;60.58;99379.28;5136180;27;20186;-90
2022/05/16 06:30:26;;;;;;;10.43;6.83;;;;;;;26.01;60.39;99378.34;5154436;27;20222;-89
2022/05/16 06:32:51;;;;;;;10.10;6.17;;;;;;;26.54;58.29;99385.72;5154982;27;20178;-89
2022/05/16 06:35:17;;;;;;;13.73;7.07;;;;;;;26.88;56.06;99383.53;5154708;27;20166;-90
2022/05/16 06:37:44;;;;;;;10.85;6.80;;;;;;;27.15;54.06;99374.91;5136194;27;20171;-89
2022/05/16 06:40:10;;;;;;;10.90;7.00;;;;;;;27.43;53.73;99368.00;5154788;27;20253;-90
2022/05/16 06:42:36;;;;;;;10.07;6.57;;;;;;;27.60;52.57;99378.59;5158464;27;20174;-89
2022/05/16 06:45:03;;;;;;;12.93;6.95;;;;;;;27.75;53.56;99379.47;5158042;27;20239;-89
2022/05/16 06:47:29;;;;;;;10.32;6.22;;;;;;;27.89;51.68;99379.47;5139726;27;20195;-90
2022/05/16 06:49:54;;;;;;;13.65;6.85;;;;;;;28.19;50.77;99372.25;5158057;27;20514;-90
2022/05/16 06:52:20;;;;;;;9.48;6.55;;;;;;;28.24;49.95;99377.09;5157983;27;20181;-89
2022/05/16 06:54:45;;;;;;;10.60;6.72;;;;;;;28.34;51.85;99378.47;5157904;27;20185;-90
2022/05/16 06:57:11;;;;;;;9.57;6.30;;;;;;;28.49;50.74;99371.19;5158167;27;20170;-90
2022/05/16 06:59:37;;;;;;;9.95;6.07;;;;;;;28.69;50.65;99376.00;5157850;27;20636;-89
2022/05/16 07:02:06;;;;;;;8.65;6.35;;;;;;;28.91;48.47;99375.00;5157827;27;20174;-89
2022/05/16 07:04:32;;;;;;;9.43;6.25;;;;;;;29.09;48.44;99367.28;5157789;27;20166;-91
2022/05/16 07:06:58;;;;;;;10.45;6.45;;;;;;;29.10;47.74;99368.97;5157707;27;20194;-90
2022/05/16 07:09:24;;;;;;;8.50;6.68;;;;;;;29.05;49.06;99374.13;5157930;27;20170;-89
2022/05/16 07:11:49;;;;;;;10.68;6.70;;;;;;;28.94;48.99;99367.38;5157602;27;20696;-90
2022/05/16 07:14:15;;;;;;;9.05;5.90;;;;;;;28.98;49.10;99365.13;5157560;27;20167;-90
2022/05/16 07:16:41;;;;;;;7.32;5.22;;;;;;;29.00;47.74;99368.47;5157640;27;20167;-92
2022/05/16 07:19:07;;;;;;;10.18;5.45;;;;;;;28.89;47.35;99368.97;5139333;27;20174;-91
2022/05/16 07:21:33;;;;;;;11.77;7.32;;;;;;;28.72;47.83;99370.25;5157495;27;20170;-90
2022/05/16 07:23:59;;;;;;;9.60;5.82;;;;;;;28.85;50.66;99371.19;5157694;27;20185;-89
2022/05/16 07:29:08;;;;;;;11.30;6.85;;;;;;;28.97;49.43;99374.25;5157405;27;20298;-89
2022/05/16 07:31:36;;;;;;;8.07;5.50;;;;;;;29.03;48.84;99376.19;5157241;27;20257;-91
2022/05/16 07:34:02;;;;;;;7.45;5.07;;;;;;;29.10;48.72;99368.97;5157449;27;20527;-89
2022/05/16 07:36:27;;;;;;;9.23;6.32;;;;;;;29.26;49.56;99368.75;5139451;27;20617;-90
2022/05/16 07:38:52;;;;;;;8.52;5.88;;;;;;;29.34;48.01;99371.31;5157389;27;20527;-90
2022/05/16 07:41:18;;;;;;;7.88;5.45;;;;;;;29.38;46.67;99369.03;5138885;27;20269;-90
2022/05/16 07:43:43;;;;;;;12.68;5.28;;;;;;;29.32;47.04;99367.97;5156917;27;20186;-90
2022/05/16 07:46:09;;;;;;;7.43;5.10;;;;;;;29.44;48.58;99362.88;5139636;27;20178;-90
2022/05/16 07:48:34;;;;;;;11.55;5.05;;;;;;;29.56;48.11;99364.81;5156806;27;20186;-90
2022/05/16 07:51:00;;;;;;;7.53;4.90;;;;;;;29.51;45.96;99359.19;5156874;27;20162;-89
2022/05/16 07:53:26;;;;;;;10.48;5.32;;;;;;;29.66;46.41;99365.34;5155711;27;20514;-88
2022/05/16 07:55:55;;;;;;;9.52;5.47;;;;;;;29.89;45.75;99369.66;5156716;27;20170;-89
2022/05/16 07:58:21;;;;;;;8.15;4.45;;;;;;;29.49;45.22;99363.09;5156634;27;20596;-90
2022/05/16 08:00:50;;;;;;;8.68;5.35;;;;;;;29.72;46.85;99361.84;5156961;27;20235;-89
2022/05/16 08:03:18;;;;;;;7.47;4.38;;;;;;;29.96;44.54;99367.84;5156604;27;20170;-90
2022/05/16 08:05:44;;;;;;;7.82;4.30;;;;;;;30.00;44.32;99367.25;5156539;27;20175;-90
2022/05/16 08:10:57;;;;;;;8.38;4.35;;;;;;;30.21;43.49;99364.47;5157064;27;20157;-90
2022/05/16 08:13:23;;;;;;;8.98;4.57;;;;;;;30.43;42.86;99360.63;5156407;27;20175;-90
2022/05/16 08:15:48;;;;;;;6.43;4.00;;;;;;;30.39;43.17;99364.78;5156687;27;20170;-90
2022/05/16 08:18:14;;;;;;;7.10;4.82;;;;;;;30.49;42.98;99361.69;5156353;27;20239;-90
2022/05/16 08:20:43;;;;;;;6.95;5.00;;;;;;;30.58;42.98;99359.66;5156909;27;20178;-90
2022/05/16 08:23:13;;;;;;;5.60;4.00;;;;;;;30.18;44.42;99355.91;5156191;27;20178;-89
2022/05/16 08:25:40;;;;;;;5.82;4.28;;;;;;;30.42;45.30;99360.84;5156758;27;20197;-89
2022/05/16 08:28:07;;;;;;;6.28;4.20;;;;;;;30.48;42.49;99365.41;5156005;27;20644;-90
2022/05/16 08:30:33;;;;;;;9.00;4.60;;;;;;;30.56;42.10;99356.28;5137830;27;20175;-89
2022/05/16 08:33:01;;;;;;;8.70;4.43;;;;;;;30.43;41.72;99365.19;5137818;27;20181;-91
2022/05/16 08:35:26;;;;;;;8.32;4.22;;;;;;;30.09;42.49;99363.34;5155987;27;20166;-89
2022/05/16 08:40:56;;;;;;;10.45;4.95;;;;;;;30.56;41.96;99357.13;5156758;27;20230;-91
2022/05/16 08:43:32;;;;;;;5.80;4.55;;;;;;;30.64;42.15;99354.25;5156004;27;20205;-89
2022/05/16 08:46:04;;;;;;;8.30;4.28;;;;;;;30.59;41.78;99354.03;5155770;27;20245;-90
2022/05/16 08:48:36;;;;;;;7.75;4.05;;;;;;;30.32;41.24;99349.53;5155992;27;20193;-90
2022/05/16 08:51:04;;;;;;;7.35;4.60;;;;;;;30.18;42.96;99355.91;5155962;27;20150;-90
2022/05/16 08:53:48;;;;;;;5.90;4.15;;;;;;;30.12;42.37;99354.00;5155753;27;20703;-91
2022/05/16 08:56:19;;;;;;;7.05;4.22;;;;;;;30.49;42.32;99355.44;5155909;27;20162;-90
2022/05/16 08:59:07;;;;;;;6.28;3.70;;;;;;;30.80;41.35;99347.63;5138517;27;20257;-90
2022/05/16 09:01:49;;;;;;;6.15;3.63;;;;;;;31.00;42.52;99343.13;5137229;27;20637;-91
2022/05/16 09:04:35;;;;;;;6.65;4.07;;;;;;;30.92;41.70;99346.84;5136988;27;20174;-91
2022/05/16 09:07:15;;;;;;;6.38;3.95;;;;;;;30.88;41.47;99344.72;5137141;27;20652;-90
2022/05/16 09:09:51;;;;;;;6.30;4.03;;;;;;;30.92;40.58;99337.91;5156063;27;20146;-91
2022/05/16 09:12:33;;;;;;;4.88;3.20;;;;;;;31.11;41.14;99336.25;5155875;27;20562;-91
2022/05/16 09:15:40;;;;;;;5.68;3.20;;;;;;;31.19;39.68;99330.63;5155327;27;20158;-91
2022/05/16 09:18:24;;;;;;;4.40;3.00;;;;;;;31.55;39.13;99325.66;5144057;27;20190;-91
2022/05/16 09:20:54;;;;;;;5.45;3.08;;;;;;;31.56;37.45;99328.16;5156112;27;20165;-90
2022/05/16 09:24:07;;;;;;;6.85;3.97;;;;;;;31.69;36.82;99324.59;5136986;27;20181;-90
2022/05/16 09:26:33;;;;;;;6.85;3.85;;;;;;;32.12;36.70;99323.06;5071902;28;20181;-91
2022/05/16 09:29:12;;;;;;;5.47;3.42;;;;;;;32.22;36.34;99323.44;5119909;27;20193;-91
2022/05/16 09:31:42;;;;;;;7.03;4.20;;;;;;;32.14;37.92;99320.13;5136884;27;20177;-91
2022/05/16 09:34:09;;;;;;;7.78;3.35;;;;;;;32.44;36.39;99309.56;5136864;27;20162;-91
2022/05/16 09:36:38;;;;;;;6.43;3.75;;;;;;;32.30;36.80;99316.91;5155071;27;20181;-91
2022/05/16 09:39:06;;;;;;;7.22;3.72;;;;;;;32.50;37.67;99308.66;5136724;27;20641;-90
2022/05/16 09:41:45;;;;;;;6.82;3.60;;;;;;;32.55;38.34;99307.00;5136800;27;20170;-91
2022/05/16 09:44:24;;;;;;;6.40;3.95;;;;;;;32.06;35.89;99307.63;5154945;27;20186;-90
2022/05/16 09:46:50;;;;;;;5.00;3.22;;;;;;;31.75;35.11;99310.19;5154740;27;20210;-90
2022/05/16 09:49:24;;;;;;;5.15;2.90;;;;;;;31.69;37.04;99304.75;5155432;27;20242;-91
2022/05/16 09:51:52;;;;;;;5.28;3.50;;;;;;;31.63;37.74;99311.88;5155216;27;20244;-91
2022/05/16 09:54:24;;;;;;;6.78;3.05;;;;;;;31.88;35.60;99293.88;5154790;27;20189;-90
2022/05/16 09:57:12;;;;;;;5.32;3.15;;;;;;;31.80;36.34;99296.81;5155118;27;20191;-90
2022/05/16 10:00:00;;;;;;;4.10;2.75;;;;;;;32.06;36.04;99291.34;5155433;27;20186;-91
2022/05/16 10:02:32;;;;;;;5.38;3.28;;;;;;;32.21;34.94;99289.19;5154747;27;20186;-91
2022/05/16 10:05:08;;;;;;;4.45;2.75;;;;;;;32.27;34.88;99292.94;5155129;27;20250;-91
2022/05/16 10:07:45;;;;;;;4.80;2.97;;;;;;;32.44;34.68;99275.13;5136538;27;20186;-91
2022/05/16 10:10:34;;;;;;;4.20;3.03;;;;;;;32.77;34.30;99272.22;5155058;27;20190;-92
2022/05/16 10:13:00;;;;;;;6.47;3.38;;;;;;;32.91;35.28;99273.78;5155272;27;20154;-90
2022/05/16 10:15:26;;;;;;;6.85;2.85;;;;;;;32.76;34.18;99275.97;5155331;27;20202;-91
2022/05/16 10:17:55;;;;;;;4.85;3.33;;;;;;;32.78;34.25;99273.88;5159007;27;20216;-91
2022/05/16 10:20:29;;;;;;;4.93;3.25;;;;;;;31.84;34.04;99270.13;5158603;27;20516;-89
2022/05/16 10:23:03;;;;;;;6.20;3.40;;;;;;;31.85;36.22;99261.78;5159285;27;20159;-90
2022/05/16 10:25:37;;;;;;;4.80;2.90;;;;;;;31.97;35.69;99254.63;5140375;27;20249;-92
2022/05/16 10:28:05;;;;;;;4.85;3.67;;;;;;;32.22;35.97;99247.47;5158763;27;20217;-90
2022/05/16 10:33:24;;;;;;;4.60;3.00;;;;;;;32.43;34.81;99242.75;5158717;27;20177;-90
2022/05/16 10:33:27;;;;;;;7.70;3.13;;;;;;;32.57;32.91;99237.06;5158372;27;20162;-91
2022/05/16 10:36:07;;;;;;;4.75;2.75;;;;;;;32.90;33.44;99225.94;5158893;27;20225;-90
2022/05/16 10:38:47;;;;;;;7.55;2.97;;;;;;;33.08;32.16;99231.44;5158938;27;20147;-90
2022/05/16 10:41:23;;;;;;;7.18;3.30;;;;;;;32.86;33.45;99223.91;5140410;27;20162;-91
2022/05/16 10:44:01;;;;;;;6.30;3.25;;;;;;;32.73;33.53;99222.13;5140993;27;20225;-90
2022/05/16 10:46:34;;;;;;;4.50;2.95;;;;;;;32.59;32.84;99213.25;5158702;27;20158;-89
2022/05/16 10:49:12;;;;;;;7.70;3.10;;;;;;;33.15;34.99;99210.47;5158098;27;20215;-90
2022/05/16 10:51:57;;;;;;;7.40;3.40;;;;;;;33.65;33.13;99200.34;5139771;27;20590;-90
2022/05/16 10:54:25;;;;;;;6.05;3.20;;;;;;;33.90;32.70;99208.44;5158366;27;20219;-90
2022/05/16 10:57:13;;;;;;;4.63;3.30;;;;;;;33.83;32.19;99197.63;5139829;27;20640;-90
2022/05/16 11:00:00;;;;;;;7.55;3.03;;;;;;;33.99;32.59;99193.44;5158981;27;20204;-90
2022/05/16 11:02:37;;;;;;;5.68;3.28;;;;;;;33.92;30.92;99184.53;5158128;27;20612;-90
2022/05/16 11:05:21;;;;;;;7.28;2.78;;;;;;;33.61;32.89;99184.75;5158003;27;20267;-91
2022/05/16 11:08:32;;;;;;;3.90;2.42;;;;;;;33.92;31.25;99185.38;5157967;27;20212;-91
2022/05/16 11:11:25;;;;;;;5.38;2.92;;;;;;;33.59;30.70;99181.44;5158307;27;20162;-90
2022/05/16 11:14:12;;;;;;;3.97;2.15;;;;;;;33.28;31.41;99179.66;5158212;27;20159;-91
2022/05/16 11:16:39;;;;;;;3.42;2.25;;;;;;;33.55;30.54;99177.44;5139624;27;20265;-90
2022/05/16 11:19:13;;;;;;;3.45;2.38;;;;;;;33.74;32.40;99170.97;5157559;27;20216;-91
2022/05/16 11:22:03;;;;;;;3.90;2.30;;;;;;;33.82;30.69;99167.94;5157528;27;20273;-90
2022/05/16 11:24:36;;;;;;;4.88;2.85;;;;;;;34.07;31.62;99159.72;5158015;27;20166;-90
2022/05/16 11:27:05;;;;;;;3.95;2.40;;;;;;;34.25;30.46;99159.66;5157458;27;20273;-89
2022/05/16 11:29:49;;;;;;;3.60;2.30;;;;;;;34.06;31.90;99158.88;5139091;27;20182;-89
2022/05/16 11:32:53;;;;;;;5.78;2.72;;;;;;;33.86;31.00;99150.94;5157842;27;20235;-90
2022/05/16 11:35:34;;;;;;;4.45;2.30;;;;;;;34.29;30.71;99145.34;5139019;27;20166;-90
2022/05/16 11:38:17;;;;;;;6.15;2.28;;;;;;;34.24;29.64;99145.22;5157464;27;20154;-91
2022/05/16 11:40:59;;;;;;;7.65;2.75;;;;;;;34.01;30.63;99140.47;5157358;27;20185;-90
2022/05/16 11:43:34;;;;;;;8.73;3.70;;;;;;;34.11;28.81;99134.53;5157235;27;20198;-91
2022/05/16 11:46:29;;;;;;;4.78;2.45;;;;;;;34.27;29.36;99127.56;5139687;27;20253;-89
2022/05/16 11:49:15;;;;;;;6.32;3.53;;;;;;;34.38;30.15;99124.88;5156946;27;20186;-90
2022/05/16 11:52:25;;;;;;;3.47;2.28;;;;;;;34.15;30.62;99119.38;5157051;27;20209;-89
2022/05/16 11:55:01;;;;;;;4.30;2.72;;;;;;;34.11;30.22;99123.63;5157128;27;20149;-91
2022/05/16 12:03:06;;;;;;;4.43;2.47;;;;;;;34.10;29.23;99115.69;5157563;27;20194;-90
2022/05/16 12:05:51;;;;;;;6.32;2.80;;;;;;;34.22;29.41;99103.78;5138408;27;20186;-91
2022/05/16 12:08:25;;;;;;;3.63;2.25;;;;;;;34.02;28.44;99103.22;5156759;27;20179;-90
2022/05/16 12:11:03;;;;;;;4.32;2.40;;;;;;;33.77;29.96;99095.22;5138674;27;20169;-90
2022/05/16 12:13:34;;;;;;;4.63;2.33;;;;;;;33.88;28.93;99099.03;5139344;27;20197;-90